createdAt,value
2022-07-31T00:02:08.716Z,5.32
2022-07-31T00:04:35.671Z,4.82
2022-07-31T00:07:03.015Z,5.15
2022-07-31T00:09:53.990Z,4.93
2022-07-31T00:12:17.705Z,5.35
2022-07-31T00:14:45.248Z,5.05
2022-07-31T00:17:12.095Z,4.82
2022-07-31T00:19:39.729Z,5.70
2022-07-31T00:22:06.504Z,5.18
2022-07-31T00:24:34.114Z,5.32
2022-07-31T00:27:01.234Z,5.15
2022-07-31T00:29:28.373Z,4.63
2022-07-31T00:31:55.192Z,5.20
2022-07-31T00:34:21.988Z,5.38
2022-07-31T00:36:48.993Z,4.68
2022-07-31T00:39:15.888Z,5.10
2022-07-31T00:41:44.971Z,4.88
2022-07-31T00:44:13.000Z,4.82
2022-07-31T00:46:41.473Z,4.93
2022-07-31T00:49:10.433Z,5.03
2022-07-31T00:51:38.575Z,4.70
2022-07-31T00:54:07.209Z,4.95
2022-07-31T00:56:34.351Z,4.95
2022-07-31T00:59:01.547Z,4.85
2022-07-31T01:01:28.584Z,4.35
2022-07-31T01:03:55.490Z,4.97
2022-07-31T01:06:22.749Z,4.70
2022-07-31T01:08:49.951Z,4.78
2022-07-31T01:11:57.790Z,4.65
2022-07-31T01:14:27.853Z,4.75
2022-07-31T01:16:58.084Z,5.05
2022-07-31T01:19:43.057Z,4.47
2022-07-31T01:22:33.338Z,4.70
2022-07-31T01:25:33.168Z,4.93
2022-07-31T01:28:49.096Z,4.68
2022-07-31T01:31:27.975Z,4.43
2022-07-31T01:36:39.682Z,4.55
2022-07-31T01:39:06.651Z,4.60
2022-07-31T01:41:40.691Z,5.00
2022-07-31T01:44:13.831Z,4.53
2022-07-31T01:46:44.830Z,4.70
2022-07-31T01:49:13.557Z,4.45
2022-07-31T01:51:43.384Z,4.80
2022-07-31T01:54:11.759Z,4.85
2022-07-31T01:56:40.148Z,4.28
2022-07-31T01:59:20.174Z,4.32
2022-07-31T02:02:09.977Z,4.68
2022-07-31T02:04:37.401Z,4.00
2022-07-31T02:07:05.949Z,4.13
2022-07-31T02:09:34.883Z,4.20
2022-07-31T02:12:03.436Z,4.50
2022-07-31T02:14:31.122Z,4.05
2022-07-31T02:16:59.581Z,3.97
2022-07-31T02:19:55.461Z,3.97
2022-07-31T02:22:27.333Z,4.03
2022-07-31T02:24:54.223Z,4.30
2022-07-31T02:27:55.558Z,4.20
2022-07-31T02:30:13.584Z,3.88
2022-07-31T02:32:41.832Z,4.20
2022-07-31T02:35:09.623Z,3.88
2022-07-31T02:37:38.396Z,3.88
2022-07-31T02:40:06.893Z,4.13
2022-07-31T02:42:34.978Z,4.10
2022-07-31T02:45:02.775Z,4.10
2022-07-31T02:47:29.894Z,3.75
2022-07-31T02:49:59.741Z,4.10
2022-07-31T02:52:26.877Z,3.80
2022-07-31T02:54:54.907Z,3.88
2022-07-31T02:59:52.557Z,4.10
2022-07-31T03:02:21.406Z,4.10
2022-07-31T03:04:48.282Z,4.13
2022-07-31T03:07:17.502Z,4.40
2022-07-31T03:09:47.625Z,3.88
2022-07-31T03:12:43.322Z,3.65
2022-07-31T03:15:16.571Z,3.53
2022-07-31T03:17:45.353Z,3.55
2022-07-31T03:20:18.472Z,3.55
2022-07-31T03:22:46.304Z,3.75
2022-07-31T03:25:20.190Z,3.88
2022-07-31T03:27:52.504Z,4.45
2022-07-31T03:30:27.446Z,4.10
2022-07-31T03:32:57.745Z,4.63
2022-07-31T03:35:25.160Z,4.03
2022-07-31T03:37:52.242Z,4.63
2022-07-31T03:40:19.203Z,4.18
2022-07-31T03:42:50.773Z,4.40
2022-07-31T03:45:19.079Z,3.75
2022-07-31T03:47:46.491Z,4.43
2022-07-31T03:50:15.335Z,5.20
2022-07-31T03:52:42.330Z,4.30
2022-07-31T03:55:10.489Z,4.00
2022-07-31T03:57:38.511Z,4.15
2022-07-31T04:00:07.337Z,4.28
2022-07-31T04:02:45.077Z,4.38
2022-07-31T04:05:35.498Z,4.10
2022-07-31T04:08:02.385Z,3.80
2022-07-31T04:10:29.952Z,4.15
2022-07-31T04:12:56.873Z,4.65
2022-07-31T04:15:24.642Z,4.30
2022-07-31T04:17:51.526Z,5.53
2022-07-31T04:20:23.761Z,4.70
2022-07-31T04:22:50.623Z,4.28
2022-07-31T04:25:37.227Z,4.63
2022-07-31T04:28:11.251Z,4.75
2022-07-31T04:30:38.400Z,5.38
2022-07-31T04:33:05.495Z,5.63
2022-07-31T04:35:32.531Z,5.60
2022-07-31T04:37:59.394Z,5.25
2022-07-31T04:40:28.350Z,5.28
2022-07-31T04:42:55.380Z,5.50
2022-07-31T04:45:22.142Z,5.80
2022-07-31T04:47:48.942Z,5.25
2022-07-31T04:50:15.798Z,5.65
2022-07-31T04:52:55.159Z,5.22
2022-07-31T04:55:24.363Z,5.75
2022-07-31T04:57:51.188Z,5.20
2022-07-31T05:00:18.372Z,5.65
2022-07-31T05:02:45.377Z,5.57
2022-07-31T05:05:12.498Z,5.05
2022-07-31T05:07:41.874Z,5.60
2022-07-31T05:10:33.871Z,6.15
2022-07-31T05:13:01.118Z,5.97
2022-07-31T05:15:28.162Z,6.28
2022-07-31T05:17:56.599Z,5.15
2022-07-31T05:21:01.630Z,5.90
2022-07-31T05:23:39.020Z,5.40
2022-07-31T05:26:30.697Z,5.68
2022-07-31T05:28:59.913Z,6.28
2022-07-31T05:31:28.323Z,5.93
2022-07-31T05:33:55.728Z,5.65
2022-07-31T05:36:22.887Z,6.05
2022-07-31T05:38:49.703Z,5.88
2022-07-31T05:41:36.206Z,5.70
2022-07-31T05:44:22.998Z,5.95
2022-07-31T05:49:17.063Z,6.25
2022-07-31T05:51:47.226Z,6.00
2022-07-31T05:54:14.556Z,5.95
2022-07-31T05:57:00.272Z,5.68
2022-07-31T05:59:34.846Z,6.47
2022-07-31T06:02:01.834Z,6.03
2022-07-31T06:04:33.134Z,5.68
2022-07-31T06:06:59.933Z,5.75
2022-07-31T06:09:27.362Z,5.80
2022-07-31T06:11:54.175Z,6.40
2022-07-31T06:14:20.968Z,6.15
2022-07-31T06:17:08.275Z,6.20
2022-07-31T06:19:36.997Z,6.50
2022-07-31T06:22:04.170Z,6.22
2022-07-31T06:24:34.648Z,6.30
2022-07-31T06:27:02.654Z,5.75
2022-07-31T06:29:41.640Z,6.40
2022-07-31T06:32:10.096Z,6.00
2022-07-31T06:34:37.407Z,6.47
2022-07-31T06:37:05.069Z,6.15
2022-07-31T06:39:55.142Z,6.68
2022-07-31T06:42:39.737Z,6.00
2022-07-31T06:45:07.360Z,5.97
2022-07-31T06:47:54.175Z,5.85
2022-07-31T06:50:36.426Z,6.40
2022-07-31T06:53:35.665Z,6.03
2022-07-31T06:56:02.457Z,6.22
2022-07-31T06:58:32.002Z,6.35
2022-07-31T07:00:58.850Z,6.03
2022-07-31T07:03:25.771Z,6.63
2022-07-31T07:05:52.802Z,6.05
2022-07-31T07:08:19.626Z,6.43
2022-07-31T07:10:49.435Z,6.45
2022-07-31T07:13:45.802Z,6.53
2022-07-31T07:16:15.184Z,6.45
2022-07-31T07:18:45.442Z,6.95
2022-07-31T07:21:12.535Z,6.93
2022-07-31T07:23:40.547Z,6.20
2022-07-31T07:26:17.383Z,6.90
2022-07-31T07:28:44.266Z,6.57
2022-07-31T07:31:11.168Z,6.60
2022-07-31T07:33:39.770Z,7.40
2022-07-31T07:36:22.384Z,6.80
2022-07-31T07:38:55.763Z,7.18
2022-07-31T07:41:24.672Z,7.20
2022-07-31T07:43:52.700Z,7.35
2022-07-31T07:46:22.679Z,6.65
2022-07-31T07:48:54.056Z,6.50
2022-07-31T07:51:58.929Z,6.80
2022-07-31T07:54:47.158Z,6.75
2022-07-31T07:57:18.391Z,6.20
2022-07-31T07:59:54.113Z,6.13
2022-07-31T08:02:41.347Z,6.00
2022-07-31T08:05:09.357Z,6.50
2022-07-31T08:07:42.010Z,6.65
2022-07-31T08:10:27.709Z,6.53
2022-07-31T08:13:02.055Z,6.00
2022-07-31T08:15:52.427Z,6.20
2022-07-31T08:18:27.169Z,6.13
2022-07-31T08:20:55.969Z,5.43
2022-07-31T08:23:22.801Z,5.70
2022-07-31T08:25:51.461Z,5.43
2022-07-31T08:28:19.645Z,5.95
2022-07-31T08:30:51.973Z,5.63
2022-07-31T08:33:21.455Z,5.60
2022-07-31T08:35:55.707Z,5.35
2022-07-31T08:38:22.495Z,5.93
2022-07-31T08:41:21.877Z,5.03
2022-07-31T08:44:03.250Z,5.72
2022-07-31T08:46:36.304Z,5.18
2022-07-31T08:49:04.186Z,5.47
2022-07-31T08:51:51.433Z,5.00
2022-07-31T08:57:31.320Z,4.38
2022-07-31T08:59:58.064Z,4.70
2022-07-31T09:02:25.150Z,4.43
2022-07-31T09:05:16.207Z,5.10
2022-07-31T09:07:43.682Z,5.13
2022-07-31T09:10:20.669Z,5.10
2022-07-31T09:12:48.069Z,4.88
2022-07-31T09:15:21.647Z,4.80
2022-07-31T09:17:53.894Z,5.13
2022-07-31T09:20:23.952Z,5.47
2022-07-31T09:23:10.178Z,4.80
2022-07-31T09:25:52.933Z,4.72
2022-07-31T09:28:23.358Z,4.88
2022-07-31T09:30:55.621Z,4.47
2022-07-31T09:33:49.339Z,4.90
2022-07-31T09:36:42.265Z,4.32
2022-07-31T09:39:29.418Z,4.30
2022-07-31T09:42:25.170Z,5.60
2022-07-31T09:44:58.546Z,5.03
2022-07-31T09:47:30.371Z,5.00
2022-07-31T09:50:02.372Z,4.78
2022-07-31T09:52:32.410Z,4.80
2022-07-31T09:55:14.356Z,5.05
2022-07-31T09:57:59.322Z,4.85
2022-07-31T10:00:31.214Z,4.63
2022-07-31T10:02:58.121Z,5.10
2022-07-31T10:05:28.557Z,5.05
2022-07-31T10:08:00.464Z,4.35
2022-07-31T10:10:47.734Z,4.47
2022-07-31T10:13:24.136Z,4.20
2022-07-31T10:15:54.367Z,4.45
2022-07-31T10:18:46.038Z,4.35
2022-07-31T10:21:38.190Z,5.00
2022-07-31T10:24:19.390Z,5.97
2022-07-31T10:27:09.475Z,4.22
2022-07-31T10:29:39.391Z,5.15
2022-07-31T10:32:08.276Z,4.22
2022-07-31T10:34:40.446Z,3.80
2022-07-31T10:37:28.667Z,3.78
2022-07-31T10:40:43.093Z,4.05
2022-07-31T10:43:27.350Z,4.03
2022-07-31T10:46:33.736Z,4.13
2022-07-31T10:49:16.076Z,3.60
2022-07-31T10:52:35.917Z,4.20
2022-07-31T10:55:22.572Z,3.65
2022-07-31T10:58:21.350Z,2.88
2022-07-31T11:01:08.500Z,3.22
2022-07-31T11:03:41.896Z,3.33
2022-07-31T11:06:40.316Z,3.63
2022-07-31T11:09:50.440Z,3.35
2022-07-31T11:12:30.299Z,3.55
2022-07-31T11:15:25.262Z,2.85
2022-07-31T11:18:32.486Z,3.13
2022-07-31T11:21:22.778Z,3.45
2022-07-31T11:24:01.830Z,3.03
2022-07-31T11:26:33.025Z,3.72
2022-07-31T11:30:01.612Z,3.47
2022-07-31T11:31:55.991Z,3.30
2022-07-31T11:34:22.880Z,3.30
2022-07-31T11:36:51.679Z,3.10
2022-07-31T11:39:18.762Z,2.80
2022-07-31T11:41:50.617Z,3.42
2022-07-31T11:44:24.106Z,3.30
2022-07-31T11:46:51.422Z,3.20
2022-07-31T11:49:47.828Z,3.13
2022-07-31T11:52:30.978Z,3.30
2022-07-31T11:55:08.867Z,2.47
2022-07-31T11:57:52.483Z,2.83
2022-07-31T12:00:26.596Z,3.30
2022-07-31T12:02:57.557Z,2.47
2022-07-31T12:18:00.264Z,3.03
2022-07-31T12:20:35.435Z,1.95
